Terminal Aerodrome Forecast
Issued by NWS Jackson, KY

Home | Current Version | Previous Version | Text Only | Print | Product List | Glossary On
Versions: 1 2 3 4 5 6 7 8 9 10 11 12
000
FTUS43 KJKL 142320
TAFLOZ
TAF
KLOZ 142320Z 1500/1524 VRB03KT P6SM BKN130
     FM150700 VRB03KT P6SM BKN050 BKN100
     FM151700 23010KT P6SM SCT045 BKN130=

USA.gov is the U.S. government's official web portal to all federal, state and local government web resources and services.